Sevilla La Nueva, Spain
Current Conditions -  °F | °C
As of 3:00 PM on Sunday 25 Jan 2015 (Local Time) from LEVS Reporting Station
Clear Clear  
Wind Chill: 59°   Ceiling: Unl
Heat Index: 59°   Visibility: 6mi
Dew Point: 21°   Wind: 1mph
Humidity: 23%   Direction: NA
Pressure: 30.3"   Gusts: NA
Location:  40.35°N, 4.03°W
Report Text: LEVS 251400Z VRB01KT CAVOK 15/M06 Q1026
Loading
Personal Weather Stations






























Interactive Weather Map New forecast layout! Learn more

10-Day Weather Forecast

Advertisements
Track Severe Weather on mobile